Time;durP1;ratioP1;P1;durP2;ratioP2;P2;SDS_P1;SDS_P2;PMS_P1;PMS_P2;Temp;Humidity;BMP_temperature;BMP_pressure;BME280_temperature;BME280_humidity;BME280_pressure;Samples;Min_cycle;Max_cycle;Signal;HPM_P1;HPM_P2
2023/01/15 00:20:27;;;;;;;26.52;3.40;;;;;;;6.80;100.00;99584.34;865127;22;20023;-88
2023/01/15 00:22:53;;;;;;;23.35;3.88;;;;;;;6.78;100.00;99563.69;5041889;28;20052;-93
2023/01/15 00:28:02;;;;;;;16.83;4.10;;;;;;;7.02;100.00;99587.31;5065957;28;20170;-92
2023/01/15 00:30:28;;;;;;;12.73;3.63;;;;;;;6.92;100.00;99583.28;5052309;28;20055;-93
2023/01/15 00:32:54;;;;;;;16.95;5.32;;;;;;;6.63;100.00;99563.53;5049540;28;20020;-92
2023/01/15 00:35:21;;;;;;;13.95;2.88;;;;;;;6.71;100.00;99576.34;5048210;28;20027;-92
2023/01/15 00:37:47;;;;;;;25.70;4.38;;;;;;;6.80;100.00;99594.69;5047872;28;20024;-92
2023/01/15 00:40:14;;;;;;;18.70;2.88;;;;;;;6.86;100.00;99582.81;5049913;28;20503;-92
2023/01/15 00:42:40;;;;;;;38.92;6.00;;;;;;;6.66;100.00;99568.34;5047794;28;20024;-92
2023/01/15 00:45:09;;;;;;;28.55;3.45;;;;;;;6.80;100.00;99589.91;5047875;28;20052;-92
2023/01/15 00:47:42;;;;;;;12.63;3.03;;;;;;;6.68;100.00;99573.50;5049918;28;20025;-92
2023/01/15 00:50:12;;;;;;;13.75;2.67;;;;;;;6.68;100.00;99582.69;5049375;28;20102;-92
2023/01/15 00:52:37;;;;;;;18.60;3.17;;;;;;;6.62;100.00;99570.31;5050981;28;20036;-92
2023/01/15 00:55:03;;;;;;;26.00;3.30;;;;;;;6.61;100.00;99592.91;5054617;28;20034;-91
2023/01/15 00:57:28;;;;;;;13.95;2.83;;;;;;;6.71;100.00;99579.13;5050140;28;20086;-92
2023/01/15 00:59:54;;;;;;;18.77;4.57;;;;;;;6.60;100.00;99594.91;5035889;28;20045;-92
2023/01/15 01:02:19;;;;;;;18.50;4.53;;;;;;;6.46;100.00;99558.63;5054903;28;20056;-92
2023/01/15 01:04:45;;;;;;;21.15;3.30;;;;;;;6.62;100.00;99575.03;5052374;28;20025;-92
2023/01/15 01:07:11;;;;;;;20.60;2.65;;;;;;;6.61;100.00;99554.00;5054581;28;20318;-91
2023/01/15 01:09:36;;;;;;;16.10;2.55;;;;;;;6.63;100.00;99563.53;5053096;28;20127;-92
2023/01/15 01:12:02;;;;;;;9.73;3.42;;;;;;;6.56;100.00;99574.63;5049826;28;20477;-90
2023/01/15 01:14:27;;;;;;;17.38;3.42;;;;;;;6.61;100.00;99554.00;5054792;28;20028;-93
2023/01/15 01:16:52;;;;;;;36.97;3.00;;;;;;;6.46;100.00;99566.97;5054873;28;20503;-92
2023/01/15 01:19:20;;;;;;;25.42;3.10;;;;;;;6.60;100.00;99569.06;5067094;28;20024;-92
2023/01/15 01:21:47;;;;;;;26.58;3.33;;;;;;;6.55;100.00;99567.44;5050545;28;20156;-91
2023/01/15 01:24:15;;;;;;;21.42;5.40;;;;;;;6.61;100.00;99587.34;5037864;28;20111;-91
2023/01/15 01:26:45;;;;;;;19.30;3.42;;;;;;;6.63;100.00;99576.66;5043309;28;20022;-92
2023/01/15 01:29:16;;;;;;;13.00;2.90;;;;;;;6.69;100.00;99589.03;5039306;28;20029;-91
2023/01/15 01:31:42;;;;;;;15.73;3.45;;;;;;;6.52;100.00;99573.78;5046160;28;20469;-92
2023/01/15 01:34:08;;;;;;;22.98;3.78;;;;;;;6.47;100.00;99555.47;5045580;28;20029;-91
2023/01/15 01:36:35;;;;;;;14.63;3.33;;;;;;;6.59;100.00;99573.84;5051230;28;20021;-91
2023/01/15 01:39:02;;;;;;;13.35;2.40;;;;;;;6.51;100.00;99595.22;5053027;28;20053;-91
2023/01/15 01:41:28;;;;;;;16.73;3.28;;;;;;;6.68;100.00;99588.22;5052813;28;20021;-90
2023/01/15 01:44:03;;;;;;;19.85;2.90;;;;;;;6.63;100.00;99596.91;5051378;28;20071;-91
2023/01/15 01:46:32;;;;;;;17.30;2.78;;;;;;;6.70;100.00;99591.44;5048342;28;20028;-91
2023/01/15 01:49:08;;;;;;;27.27;4.35;;;;;;;6.37;100.00;99577.59;5039853;28;20037;-91
2023/01/15 01:51:38;;;;;;;20.10;4.80;;;;;;;6.44;100.00;99608.25;5049730;28;20472;-91
2023/01/15 01:54:05;;;;;;;16.27;3.55;;;;;;;6.37;100.00;99578.41;5052879;28;20075;-91
2023/01/15 01:56:34;;;;;;;25.02;4.65;;;;;;;6.34;100.00;99584.69;5050337;28;20049;-91
2023/01/15 01:59:01;;;;;;;16.38;3.65;;;;;;;6.47;100.00;99604.69;5048446;28;20381;-91
2023/01/15 02:01:27;;;;;;;23.58;5.63;;;;;;;6.33;100.00;99593.44;5052568;28;20512;-91
2023/01/15 02:03:52;;;;;;;18.40;3.20;;;;;;;6.55;100.00;99603.59;5038183;28;20116;-92
2023/01/15 02:06:18;;;;;;;14.45;3.13;;;;;;;6.49;100.00;99596.75;5051566;28;20020;-91
2023/01/15 02:08:44;;;;;;;13.95;3.53;;;;;;;6.53;100.00;99585.69;5049749;28;20022;-91
2023/01/15 02:11:16;;;;;;;15.45;2.88;;;;;;;6.47;100.00;99579.66;5040243;28;20075;-91
2023/01/15 02:13:59;;;;;;;13.05;3.67;;;;;;;6.31;100.00;99568.81;5039853;28;20082;-91
2023/01/15 02:16:35;;;;;;;22.65;4.18;;;;;;;6.38;100.00;99598.63;5047257;28;20063;-91
2023/01/15 02:19:20;;;;;;;16.10;3.15;;;;;;;6.48;100.00;99606.28;5044021;28;20018;-92
2023/01/15 02:22:18;;;;;;;18.50;5.38;;;;;;;6.47;100.00;99588.00;5049790;28;20124;-91
2023/01/15 02:25:08;;;;;;;13.55;3.85;;;;;;;6.50;100.00;99588.06;5040088;28;20032;-91
2023/01/15 02:27:35;;;;;;;10.98;2.22;;;;;;;6.54;100.00;99571.41;5044490;28;20027;-91
2023/01/15 02:30:21;;;;;;;29.30;4.55;;;;;;;6.48;100.00;99597.97;5051241;28;20116;-91
2023/01/15 02:33:05;;;;;;;18.45;2.92;;;;;;;6.48;100.00;99592.41;5043310;28;20037;-92
2023/01/15 02:35:42;;;;;;;12.38;2.70;;;;;;;6.48;100.00;99597.97;5043404;28;20112;-92
2023/01/15 02:38:12;;;;;;;24.25;2.90;;;;;;;6.49;100.00;99585.66;5063787;28;20040;-90
2023/01/15 02:40:39;;;;;;;31.13;5.05;;;;;;;6.36;100.00;99571.22;5046670;28;20021;-91
2023/01/15 02:43:07;;;;;;;16.67;3.00;;;;;;;6.50;100.00;99559.47;5048842;28;20021;-91
2023/01/15 02:45:38;;;;;;;24.50;3.10;;;;;;;6.41;100.00;99548.66;5049829;28;20028;-91
2023/01/15 02:48:25;;;;;;;19.88;3.42;;;;;;;6.68;100.00;99565.16;5047085;28;20667;-91
2023/01/15 02:51:00;;;;;;;22.52;3.47;;;;;;;6.50;100.00;99565.03;5045839;28;20517;-91
2023/01/15 02:53:29;;;;;;;25.85;3.42;;;;;;;6.57;100.00;99570.63;5054891;28;20072;-91
2023/01/15 02:56:01;;;;;;;26.65;4.93;;;;;;;6.47;100.00;99571.31;5047274;28;20021;-91
2023/01/15 02:58:34;;;;;;;20.02;3.05;;;;;;;6.38;100.00;99545.84;5042447;28;20022;-91
2023/01/15 03:01:05;;;;;;;14.57;2.67;;;;;;;6.38;100.00;99554.16;5047847;28;20025;-91
2023/01/15 03:03:50;;;;;;;22.48;3.42;;;;;;;6.38;100.00;99562.50;5040194;28;20111;-91
2023/01/15 03:06:53;;;;;;;19.00;3.17;;;;;;;6.48;100.00;99575.72;5052220;28;20047;-91
2023/01/15 03:09:19;;;;;;;11.63;2.53;;;;;;;6.38;100.00;99571.63;5039672;28;20112;-91
2023/01/15 03:12:18;;;;;;;15.25;2.70;;;;;;;6.23;100.00;99556.81;5052468;28;20028;-91
2023/01/15 03:15:04;;;;;;;16.70;3.38;;;;;;;6.38;100.00;99563.31;5041861;28;20037;-91
2023/01/15 03:17:54;;;;;;;18.88;3.65;;;;;;;6.44;100.00;99556.22;5049805;28;20497;-91
2023/01/15 03:20:25;;;;;;;17.77;4.03;;;;;;;6.28;100.00;99559.25;5049463;28;20493;-91
2023/01/15 03:22:58;;;;;;;19.50;3.88;;;;;;;6.33;100.00;99560.09;5048600;28;20127;-90
2023/01/15 03:25:25;;;;;;;;;;;;;;;6.48;100.00;99556.25;5047209;28;20491;-90
2023/01/15 03:27:54;;;;;;;15.25;2.85;;;;;;;6.14;100.00;99534.09;5052529;28;19959;-91
2023/01/15 03:30:21;;;;;;;17.60;3.35;;;;;;;6.41;100.00;99545.06;5049401;28;20504;-92
2023/01/15 03:32:46;;;;;;;18.40;3.25;;;;;;;6.30;100.00;99539.41;5052160;28;20303;-91
2023/01/15 03:36:06;;;;;;;17.75;2.72;;;;;;;6.42;100.00;99546.66;5050646;28;20035;-92
2023/01/15 03:38:34;;;;;;;25.50;3.78;;;;;;;6.27;100.00;99546.53;4971975;28;20027;-91
2023/01/15 03:41:06;;;;;;;13.65;2.50;;;;;;;6.30;100.00;99551.34;5025225;28;20033;-92
2023/01/15 03:43:49;;;;;;;18.40;3.95;;;;;;;6.27;100.00;99543.75;5045053;28;20473;-91
2023/01/15 03:46:40;;;;;;;18.42;4.47;;;;;;;6.27;100.00;99543.75;5048029;28;20025;-92
2023/01/15 03:49:30;;;;;;;20.33;4.10;;;;;;;6.17;100.00;99541.66;5049970;28;20461;-91
2023/01/15 03:52:02;;;;;;;32.03;4.97;;;;;;;6.16;100.00;99540.06;5042361;28;20025;-91
2023/01/15 03:54:56;;;;;;;30.08;5.00;;;;;;;6.04;100.00;99523.66;5046547;28;20036;-91
2023/01/15 03:57:27;;;;;;;23.00;4.22;;;;;;;6.29;100.00;99537.81;5047272;28;20037;-92
2023/01/15 03:59:56;;;;;;;18.05;2.83;;;;;;;6.28;100.00;99555.66;5050364;28;20029;-91
2023/01/15 04:02:24;;;;;;;25.80;3.88;;;;;;;6.24;100.00;99547.31;5047152;28;20036;-92
2023/01/15 04:04:51;;;;;;;17.15;3.38;;;;;;;6.20;100.00;99554.78;5039511;28;20025;-91
2023/01/15 04:07:17;;;;;;;17.75;3.10;;;;;;;6.16;100.00;99551.19;5045348;28;20488;-92
2023/01/15 04:09:42;;;;;;;17.55;2.88;;;;;;;6.06;100.00;99563.75;5039154;28;20055;-92
2023/01/15 04:12:08;;;;;;;15.57;3.47;;;;;;;6.02;100.00;99540.69;5049587;28;20024;-92
2023/01/15 04:14:34;;;;;;;14.15;2.50;;;;;;;6.16;100.00;99553.97;5046645;28;20026;-92
2023/01/15 04:17:00;;;;;;;20.92;2.75;;;;;;;6.10;100.00;99552.69;5048606;28;20027;-92
2023/01/15 04:19:25;;;;;;;20.30;2.95;;;;;;;6.21;100.00;99553.59;5039657;28;20030;-92
2023/01/15 04:21:50;;;;;;;33.17;5.25;;;;;;;6.22;100.00;99552.44;5047770;28;20049;-92
2023/01/15 04:24:16;;;;;;;17.98;3.10;;;;;;;6.14;100.00;99536.06;5053846;28;20021;-92
2023/01/15 04:26:41;;;;;;;18.25;3.95;;;;;;;6.18;100.00;99546.03;5042030;28;20428;-92
2023/01/15 04:29:07;;;;;;;15.77;3.30;;;;;;;6.09;100.00;99528.84;5048052;28;20028;-91
2023/01/15 04:31:33;;;;;;;18.55;2.63;;;;;;;6.25;100.00;99518.31;5050591;28;20056;-91
2023/01/15 04:33:59;;;;;;;26.20;2.47;;;;;;;6.24;100.00;99547.31;5047150;28;20044;-92
2023/01/15 04:36:24;;;;;;;19.73;4.95;;;;;;;6.26;100.00;99553.28;5042128;28;20060;-91
2023/01/15 04:38:49;;;;;;;16.20;1.90;;;;;;;6.08;100.00;99516.16;5045593;28;20112;-91
2023/01/15 04:44:08;;;;;;;28.30;3.25;;;;;;;6.20;100.00;99540.91;5050793;28;20031;-92
2023/01/15 04:46:39;;;;;;;18.02;2.78;;;;;;;6.10;100.00;99547.94;5047529;28;20369;-91
2023/01/15 04:49:07;;;;;;;21.58;2.92;;;;;;;6.23;100.00;99547.66;5051668;28;20392;-91
2023/01/15 04:51:33;;;;;;;13.35;2.53;;;;;;;6.02;100.00;99532.38;5046092;28;20021;-92
2023/01/15 04:54:02;;;;;;;24.80;3.63;;;;;;;6.04;100.00;99526.44;5032635;28;20056;-91
2023/01/15 04:56:27;;;;;;;22.30;5.63;;;;;;;6.04;100.00;99529.22;5043931;28;20029;-91
2023/01/15 04:58:52;;;;;;;20.75;3.65;;;;;;;6.20;100.00;99535.34;5037168;28;20031;-91
2023/01/15 05:01:18;;;;;;;14.95;2.85;;;;;;;6.01;100.00;99516.88;5045009;28;20021;-91
2023/01/15 05:03:44;;;;;;;18.15;2.67;;;;;;;6.11;100.00;99545.94;5041371;28;20040;-91
2023/01/15 05:06:09;;;;;;;17.98;2.88;;;;;;;6.09;100.00;99537.19;5050293;28;20025;-92
2023/01/15 05:08:35;;;;;;;12.40;1.77;;;;;;;6.09;100.00;99545.53;5039261;28;20112;-91
2023/01/15 05:11:05;;;;;;;12.25;3.58;;;;;;;6.16;100.00;99551.19;5046315;28;20107;-91
2023/01/15 05:13:32;;;;;;;15.85;3.17;;;;;;;6.15;100.00;99532.91;5053242;28;20032;-92
2023/01/15 05:16:28;;;;;;;22.08;2.80;;;;;;;6.08;100.00;99524.50;5042635;28;20484;-91
2023/01/15 05:18:58;;;;;;;19.92;2.88;;;;;;;6.00;100.00;99531.16;5032209;28;20048;-91
2023/01/15 05:21:25;;;;;;;21.63;4.57;;;;;;;6.01;100.00;99535.50;5052417;28;20080;-91
2023/01/15 05:23:53;;;;;;;12.88;2.53;;;;;;;6.07;100.00;99522.88;5055096;28;20171;-91
2023/01/15 05:26:19;;;;;;;18.45;2.70;;;;;;;5.87;100.00;99500.81;5053645;28;20025;-92
2023/01/15 05:28:46;;;;;;;12.95;3.10;;;;;;;5.87;100.00;99506.38;5055346;28;20068;-92
2023/01/15 05:31:16;;;;;;;11.77;2.72;;;;;;;6.02;100.00;99534.34;5047746;28;20029;-91
2023/01/15 05:33:43;;;;;;;23.27;3.28;;;;;;;5.88;100.00;99521.88;5034104;28;20025;-92
2023/01/15 05:36:11;;;;;;;16.98;2.75;;;;;;;5.98;100.00;99527.94;5045385;28;20025;-92
2023/01/15 05:38:37;;;;;;;17.75;3.85;;;;;;;5.97;100.00;99512.47;5051036;28;20036;-92
2023/01/15 05:41:47;;;;;;;17.70;3.53;;;;;;;5.95;100.00;99517.63;5052218;28;20033;-92
2023/01/15 05:43:54;;;;;;;22.48;2.97;;;;;;;6.03;100.00;99508.97;5050184;28;20025;-93
2023/01/15 05:46:20;;;;;;;16.38;2.40;;;;;;;6.03;100.00;99508.16;5050480;28;20021;-91
2023/01/15 05:48:46;;;;;;;20.27;2.78;;;;;;;5.98;100.00;99502.97;5050783;28;20171;-92
2023/01/15 05:51:11;;;;;;;21.17;3.72;;;;;;;5.90;100.00;99505.63;5049336;28;20024;-92
2023/01/15 05:53:37;;;;;;;15.52;2.33;;;;;;;5.72;100.00;99496.28;5050219;28;20039;-91
2023/01/15 05:56:03;;;;;;;23.23;3.53;;;;;;;6.00;100.00;99509.72;5055404;28;20025;-92
2023/01/15 05:58:29;;;;;;;37.42;5.28;;;;;;;5.93;100.00;99508.84;5053253;28;20473;-92
2023/01/15 06:00:55;;;;;;;20.15;3.47;;;;;;;5.99;100.00;99510.13;5048915;28;20041;-91
2023/01/15 06:03:21;;;;;;;14.77;2.30;;;;;;;5.81;100.00;99501.56;5051114;28;20033;-91
2023/01/15 06:05:51;;;;;;;18.10;4.00;;;;;;;5.88;100.00;99513.53;5051604;28;20545;-92
2023/01/15 06:08:17;;;;;;;8.75;2.15;;;;;;;5.65;100.00;99483.13;5048690;28;20500;-92
2023/01/15 06:10:46;;;;;;;14.23;2.72;;;;;;;5.83;100.00;99511.09;5045341;28;20052;-91
2023/01/15 06:13:13;;;;;;;19.70;3.63;;;;;;;5.83;100.00;99516.66;5051734;28;20032;-91
2023/01/15 06:15:38;;;;;;;16.63;2.67;;;;;;;5.70;100.00;99506.97;5042752;28;20033;-91
2023/01/15 06:18:04;;;;;;;9.88;3.65;;;;;;;5.80;100.00;99513.84;5041827;28;20028;-92
2023/01/15 06:20:29;;;;;;;20.65;2.97;;;;;;;5.72;100.00;99526.84;5046364;28;20660;-93
2023/01/15 06:22:54;;;;;;;11.40;2.63;;;;;;;5.61;100.00;99504.50;5051407;28;20067;-92
2023/01/15 06:25:20;;;;;;;20.45;4.55;;;;;;;5.75;100.00;99517.72;5050538;28;20040;-92
2023/01/15 06:27:48;;;;;;;11.73;2.83;;;;;;;5.66;100.00;99508.91;5050426;28;20522;-91
2023/01/15 06:30:13;;;;;;;13.02;3.88;;;;;;;5.73;100.00;99502.63;5065599;28;20028;-91
2023/01/15 06:32:39;;;;;;;14.27;3.00;;;;;;;5.43;100.00;99482.06;5052545;28;20602;-92
2023/01/15 06:35:04;;;;;;;19.60;3.10;;;;;;;5.47;100.00;99480.13;5045752;28;20392;-92
2023/01/15 06:37:30;;;;;;;20.45;2.95;;;;;;;5.64;100.00;99497.38;5058758;28;20020;-91
2023/01/15 06:39:55;;;;;;;15.82;3.00;;;;;;;5.56;100.00;99502.03;5052431;28;20040;-92
2023/01/15 06:47:49;;;;;;;9.00;1.95;;;;;;;5.44;100.00;99489.22;5068831;28;20376;-91
2023/01/15 06:50:17;;;;;;;12.73;2.72;;;;;;;5.50;100.00;99493.28;5052696;28;20028;-93
2023/01/15 06:52:42;;;;;;;18.00;2.75;;;;;;;5.57;100.00;99505.63;5048828;28;20032;-92
2023/01/15 06:55:08;;;;;;;8.63;3.20;;;;;;;5.46;100.00;99509.06;5064348;28;20092;-92
2023/01/15 06:57:37;;;;;;;11.82;3.88;;;;;;;5.54;100.00;99520.25;5056224;28;20459;-91
2023/01/15 07:00:06;;;;;;;16.67;2.78;;;;;;;5.38;100.00;99501.03;5042846;28;20060;-91
2023/01/15 07:02:32;;;;;;;17.25;2.72;;;;;;;5.50;100.00;99482.16;5046528;28;20547;-92
2023/01/15 07:04:58;;;;;;;7.80;2.17;;;;;;;5.52;100.00;99515.06;5053275;28;20032;-91
2023/01/15 07:07:26;;;;;;;18.42;2.10;;;;;;;5.54;100.00;99509.16;5052492;28;20464;-91
2023/01/15 07:09:51;;;;;;;12.25;4.78;;;;;;;5.42;100.00;99519.31;5053573;28;20070;-91
2023/01/15 07:12:17;;;;;;;41.50;4.70;;;;;;;5.27;100.00;99500.88;5059932;28;20052;-91
2023/01/15 07:14:43;;;;;;;12.80;2.45;;;;;;;5.23;100.00;99506.38;5034043;28;20511;-91
2023/01/15 07:17:08;;;;;;;12.65;4.18;;;;;;;5.47;100.00;99512.66;5043244;28;20780;-91
2023/01/15 07:19:35;;;;;;;12.43;2.95;;;;;;;5.48;100.00;99506.72;5058966;28;20021;-91
2023/01/15 07:22:00;;;;;;;25.45;4.88;;;;;;;5.25;100.00;99519.91;5046101;28;20090;-92
2023/01/15 07:24:26;;;;;;;9.32;1.90;;;;;;;5.28;99.88;99513.59;5052331;28;20032;-90
2023/01/15 07:26:51;;;;;;;12.25;2.75;;;;;;;5.49;100.00;99502.75;5052676;28;20092;-91
2023/01/15 07:29:16;;;;;;;9.80;2.38;;;;;;;5.39;99.56;99508.16;5044459;28;20032;-91
2023/01/15 07:31:42;;;;;;;9.85;2.58;;;;;;;5.24;100.00;99488.56;5044232;28;20051;-91
2023/01/15 07:34:08;;;;;;;12.05;3.42;;;;;;;5.33;100.00;99504.13;5064019;28;20082;-91
2023/01/15 07:36:34;;;;;;;16.63;3.22;;;;;;;5.26;95.92;99493.72;5044141;28;20029;-90
2023/01/15 07:38:59;;;;;;;13.15;3.42;;;;;;;5.37;97.31;99494.66;5048989;28;20020;-91
2023/01/15 07:49:44;;;;;;;15.95;3.92;;;;;;;5.36;95.60;99486.75;5059289;28;20035;-91
2023/01/15 07:52:17;;;;;;;14.18;2.33;;;;;;;5.31;98.24;99485.06;5048203;28;20025;-91
2023/01/15 07:54:43;;;;;;;;;;;;;;;5.27;94.30;99506.41;5056553;28;20028;-92
2023/01/15 07:57:10;;;;;;;16.60;2.53;;;;;;;5.32;97.49;99502.53;5049065;28;20354;-91
2023/01/15 07:59:35;;;;;;;17.42;3.50;;;;;;;5.12;94.11;99499.09;5049437;28;20016;-91
2023/01/15 08:02:00;;;;;;;13.35;2.97;;;;;;;5.25;96.75;99486.59;5038655;28;20058;-92
2023/01/15 08:04:26;;;;;;;10.02;2.50;;;;;;;5.20;94.88;99500.78;5045394;28;20021;-91
2023/01/15 08:06:51;;;;;;;19.98;2.55;;;;;;;5.10;91.87;99502.22;5050221;28;20056;-92
2023/01/15 08:09:16;;;;;;;9.65;2.08;;;;;;;5.20;95.28;99490.47;5052506;28;20079;-92
2023/01/15 08:17:10;;;;;;;10.48;2.55;;;;;;;5.15;96.72;99476.16;5059565;28;20163;-91
2023/01/15 08:19:35;;;;;;;9.57;2.20;;;;;;;5.18;94.26;99492.03;5045803;28;20017;-92
2023/01/15 08:22:00;;;;;;;6.53;2.35;;;;;;;5.27;97.67;99489.78;5049508;28;20057;-92
2023/01/15 08:24:27;;;;;;;5.57;1.52;;;;;;;5.35;96.08;99497.03;5045510;28;20334;-92
2023/01/15 08:26:52;;;;;;;20.23;2.33;;;;;;;5.45;96.72;99499.13;5047547;28;20032;-92
2023/01/15 08:29:18;;;;;;;11.90;2.20;;;;;;;5.35;93.66;99502.56;5050373;28;20036;-92
2023/01/15 08:31:43;;;;;;;17.00;2.90;;;;;;;5.38;97.57;99487.97;5044147;28;20051;-91
2023/01/15 08:34:09;;;;;;;14.18;3.15;;;;;;;5.41;96.75;99514.94;5050739;28;20051;-91
2023/01/15 08:36:35;;;;;;;13.93;1.95;;;;;;;5.50;100.00;99490.50;5057494;28;20033;-91
2023/01/15 08:39:00;;;;;;;18.58;2.58;;;;;;;5.36;100.00;99478.41;5059838;28;20028;-91
2023/01/15 08:41:25;;;;;;;7.60;2.22;;;;;;;5.43;100.00;99476.50;5060972;28;20033;-90
2023/01/15 08:43:51;;;;;;;16.55;3.00;;;;;;;5.62;100.00;99475.56;5040850;28;20036;-91
2023/01/15 08:46:22;;;;;;;15.23;2.63;;;;;;;5.65;100.00;99482.31;5039089;28;20658;-88
2023/01/15 08:48:48;;;;;;;20.60;3.17;;;;;;;5.67;100.00;99460.53;5039610;28;20043;-84
2023/01/15 08:51:14;;;;;;;10.00;2.78;;;;;;;5.70;100.00;99482.78;5046209;28;20040;-84
2023/01/15 08:53:40;;;;;;;16.42;2.55;;;;;;;5.81;100.00;99482.91;5043023;28;20086;-85
2023/01/15 08:56:17;;;;;;;14.57;3.13;;;;;;;5.74;99.85;99491.16;5046514;28;20036;-85
2023/01/15 08:58:44;;;;;;;12.52;2.70;;;;;;;5.90;100.00;99475.09;5058245;28;20111;-87
2023/01/15 09:01:14;;;;;;;20.58;3.40;;;;;;;5.86;99.16;99479.81;5045427;28;20438;-86
2023/01/15 09:03:41;;;;;;;17.08;3.78;;;;;;;5.80;100.00;99495.19;5062610;28;20411;-85
2023/01/15 09:06:06;;;;;;;16.98;2.65;;;;;;;5.73;100.00;99463.78;5046073;28;20025;-85
2023/01/15 09:08:32;;;;;;;15.63;2.13;;;;;;;5.69;100.00;99455.41;5044754;28;20047;-85
2023/01/15 09:10:58;;;;;;;9.48;2.55;;;;;;;5.66;100.00;99481.94;5063440;28;20076;-83
2023/01/15 09:13:24;;;;;;;7.45;2.13;;;;;;;5.58;100.00;99501.69;5046555;28;20020;-82
2023/01/15 09:15:50;;;;;;;18.15;2.80;;;;;;;5.49;100.00;99485.31;5049886;22;20056;-82
2023/01/15 09:18:18;;;;;;;10.10;2.70;;;;;;;5.50;100.00;99504.38;5018586;28;20069;-82
2023/01/15 09:20:44;;;;;;;14.25;2.60;;;;;;;5.05;100.00;99500.56;5000743;28;20057;-85
2023/01/15 09:23:10;;;;;;;22.02;2.78;;;;;;;4.59;100.00;99500.66;5004253;28;20017;-86
2023/01/15 09:25:35;;;;;;;8.50;2.00;;;;;;;4.84;100.00;99522.44;5004685;28;20041;-86
2023/01/15 09:28:00;;;;;;;12.27;2.20;;;;;;;4.65;100.00;99507.50;5009988;28;20037;-86
2023/01/15 09:30:26;;;;;;;16.63;2.28;;;;;;;4.74;100.00;99462.09;5025981;28;20036;-86
2023/01/15 09:32:51;;;;;;;8.32;1.98;;;;;;;4.58;100.00;99499.06;5003841;28;20493;-86
2023/01/15 09:35:16;;;;;;;9.35;2.45;;;;;;;4.66;100.00;99511.88;5002031;28;20051;-87
2023/01/15 09:37:42;;;;;;;13.32;2.30;;;;;;;4.73;100.00;99488.22;5008833;28;20021;-86
2023/01/15 09:40:27;;;;;;;15.65;3.45;;;;;;;4.77;100.00;99516.81;5023466;28;20055;-84
2023/01/15 09:43:08;;;;;;;12.27;2.92;;;;;;;4.78;100.00;99518.38;5023528;28;20060;-84
2023/01/15 09:45:44;;;;;;;7.68;2.50;;;;;;;4.74;100.00;99504.47;5018586;28;20029;-83
2023/01/15 09:48:22;;;;;;;9.68;2.20;;;;;;;4.49;100.00;99506.84;5011877;28;20041;-84
2023/01/15 09:51:00;;;;;;;11.65;2.28;;;;;;;4.55;100.00;99497.03;5011535;28;20025;-84
2023/01/15 09:53:59;;;;;;;13.57;2.28;;;;;;;4.66;100.00;99506.34;5004500;28;20022;-84
2023/01/15 09:56:28;;;;;;;10.63;2.47;;;;;;;4.52;100.00;99519.97;5008143;28;20493;-84
2023/01/15 09:58:56;;;;;;;14.93;3.17;;;;;;;4.98;100.00;99510.78;5013493;28;20477;-83
2023/01/15 10:01:28;;;;;;;17.23;2.42;;;;;;;4.98;100.00;99508.81;5024859;28;20053;-83
2023/01/15 10:04:05;;;;;;;12.18;2.10;;;;;;;4.79;100.00;99504.16;5028738;28;20052;-83
2023/01/15 10:07:04;;;;;;;12.02;2.63;;;;;;;4.71;100.00;99485.03;5009249;28;20374;-83
2023/01/15 10:09:38;;;;;;;11.90;2.95;;;;;;;4.93;100.00;99503.56;4986970;28;20044;-83
2023/01/15 10:15:21;;;;;;;20.95;2.25;;;;;;;5.19;100.00;99488.09;5032654;28;20104;-83
2023/01/15 10:17:57;;;;;;;13.68;2.45;;;;;;;5.19;100.00;99504.75;5030770;28;20060;-84
2023/01/15 10:20:48;;;;;;;16.05;3.47;;;;;;;5.11;100.00;99511.38;5004347;28;20042;-83
2023/01/15 10:23:34;;;;;;;14.18;2.97;;;;;;;5.30;100.00;99500.13;5005619;28;20120;-90
2023/01/15 10:26:15;;;;;;;12.98;2.78;;;;;;;5.77;100.00;99501.50;5002337;28;20030;-87
2023/01/15 10:29:22;;;;;;;9.00;2.53;;;;;;;5.65;100.00;99493.41;4999864;28;20060;-86
2023/01/15 10:31:52;;;;;;;15.32;2.70;;;;;;;5.58;100.00;99488.59;5019051;28;20057;-86
2023/01/15 10:34:46;;;;;;;11.13;2.00;;;;;;;5.52;100.00;99489.31;5024606;28;20034;-86
2023/01/15 10:37:24;;;;;;;10.98;2.92;;;;;;;5.48;100.00;99490.06;4994116;28;20041;-86
2023/01/15 10:40:16;;;;;;;14.32;2.65;;;;;;;5.57;100.00;99491.75;5009982;28;20109;-87
2023/01/15 10:42:50;;;;;;;13.73;3.35;;;;;;;5.43;100.00;99487.63;5008545;28;20061;-86
2023/01/15 10:45:24;;;;;;;12.70;2.70;;;;;;;5.52;100.00;99495.66;5004993;28;20033;-87
2023/01/15 10:48:00;;;;;;;10.85;2.00;;;;;;;5.43;100.00;99509.03;5020966;28;20040;-85
2023/01/15 10:50:26;;;;;;;12.38;2.97;;;;;;;5.44;100.00;99508.66;5024922;28;20044;-88
2023/01/15 10:53:01;;;;;;;13.57;2.72;;;;;;;5.48;100.00;99501.19;4998526;28;20454;-88
2023/01/15 10:55:41;;;;;;;20.35;2.40;;;;;;;5.48;100.00;99506.72;5028692;28;20112;-88
2023/01/15 10:58:35;;;;;;;22.15;3.38;;;;;;;5.49;100.00;99511.09;5021638;28;20033;-87
2023/01/15 11:01:04;;;;;;;10.63;2.50;;;;;;;5.55;100.00;99516.31;5017417;28;20096;-87
2023/01/15 11:03:39;;;;;;;23.80;3.47;;;;;;;5.62;100.00;99516.41;5015617;28;20700;-87
2023/01/15 11:06:07;;;;;;;11.18;2.05;;;;;;;5.52;100.00;99512.28;5023360;28;20034;-87
2023/01/15 11:08:34;;;;;;;15.52;3.40;;;;;;;5.52;100.00;99517.06;5022911;28;20025;-86
2023/01/15 11:11:21;;;;;;;10.35;1.98;;;;;;;5.48;100.00;99533.66;5023609;28;20048;-85
2023/01/15 11:19:38;;;;;;;12.45;2.75;;;;;;;5.65;100.00;99518.41;5019236;28;20124;-85
2023/01/15 11:22:13;;;;;;;12.82;3.30;;;;;;;5.77;100.00;99518.16;5006005;28;20033;-85
2023/01/15 11:24:48;;;;;;;21.27;2.85;;;;;;;5.83;100.00;99530.53;5008597;28;20481;-85
2023/01/15 11:27:17;;;;;;;13.38;2.42;;;;;;;5.84;100.00;99525.78;5003687;28;20041;-84
2023/01/15 11:29:44;;;;;;;29.15;3.72;;;;;;;5.98;100.00;99519.63;5011980;28;20109;-84
2023/01/15 11:32:30;;;;;;;17.10;2.70;;;;;;;5.96;100.00;99513.66;5007470;28;20481;-84
2023/01/15 11:35:14;;;;;;;16.40;2.88;;;;;;;5.98;100.00;99511.28;5007215;28;20560;-84
2023/01/15 11:37:40;;;;;;;21.25;4.28;;;;;;;6.02;100.00;99518.47;5002346;28;20029;-85
2023/01/15 11:40:18;;;;;;;16.92;3.45;;;;;;;5.92;100.00;99494.13;5020358;28;20022;-84
2023/01/15 11:51:12;;;;;;;21.67;4.55;;;;;;;6.24;100.00;99502.84;5020848;28;20168;-87
2023/01/15 11:53:46;;;;;;;18.95;4.15;;;;;;;6.15;100.00;99496.78;4997156;28;20644;-84
2023/01/15 11:56:25;;;;;;;11.27;2.83;;;;;;;6.18;100.00;99498.03;5019284;28;20026;-83
2023/01/15 11:58:56;;;;;;;11.93;3.10;;;;;;;6.27;100.00;99512.38;5021926;28;20528;-84
2023/01/15 12:01:32;;;;;;;29.70;6.57;;;;;;;6.25;100.00;99509.97;5005840;28;20033;-84
2023/01/15 12:04:00;;;;;;;16.52;2.85;;;;;;;6.16;100.00;99506.72;4995857;28;20027;-85
2023/01/15 12:06:27;;;;;;;13.45;2.70;;;;;;;6.22;100.00;99477.41;5004584;28;20064;-84
2023/01/15 12:09:11;;;;;;;12.98;2.47;;;;;;;6.28;100.00;99509.22;5020026;28;20039;-83
2023/01/15 12:11:45;;;;;;;13.50;2.65;;;;;;;6.28;100.00;99503.69;5003112;28;20317;-87
2023/01/15 12:14:32;;;;;;;17.60;2.95;;;;;;;6.16;100.00;99495.59;5020642;28;20045;-87
2023/01/15 12:17:31;;;;;;;10.35;2.80;;;;;;;6.25;100.00;99509.97;5003722;28;20064;-86
2023/01/15 12:20:05;;;;;;;16.85;3.40;;;;;;;6.29;100.00;99502.47;4999802;28;20501;-83
2023/01/15 12:22:52;;;;;;;11.88;3.55;;;;;;;6.22;100.00;99505.19;5010490;28;20639;-84
2023/01/15 12:25:45;;;;;;;13.45;2.80;;;;;;;6.17;100.00;99504.75;5020657;28;20367;-85
2023/01/15 12:28:27;;;;;;;14.70;3.25;;;;;;;6.17;100.00;99497.19;5006222;28;20036;-84
2023/01/15 12:31:14;;;;;;;13.48;2.30;;;;;;;5.99;100.00;99501.78;5010184;28;20041;-86
2023/01/15 12:33:48;;;;;;;11.98;2.63;;;;;;;6.10;100.00;99499.91;5001249;28;20033;-86
2023/01/15 12:36:52;;;;;;;12.98;3.83;;;;;;;6.10;100.00;99494.34;5022384;28;20026;-86
2023/01/15 12:39:24;;;;;;;12.32;2.80;;;;;;;6.30;100.00;99495.75;5000246;28;20041;-87
2023/01/15 12:45:06;;;;;;;15.68;3.42;;;;;;;6.30;100.00;99490.19;5019341;28;20056;-85
2023/01/15 12:48:02;;;;;;;10.68;3.50;;;;;;;6.33;100.00;99474.72;5014977;28;20067;-84
2023/01/15 12:50:30;;;;;;;13.70;2.88;;;;;;;6.31;100.00;99497.34;5021655;28;20133;-85